sensor_id;sensor_type;location;lat;lon;timestamp;pressure;altitude;pressure_sealevel;temperature;humidity
49055;BME280;35405;52.344;14.530;2023-02-11T06:00:51;101788.22;;;2.95;100.00
49055;BME280;35405;52.344;14.530;2023-02-11T06:03:16;101791.72;;;2.96;100.00
49055;BME280;35405;52.344;14.530;2023-02-11T06:05:42;101788.22;;;2.95;100.00
49055;BME280;35405;52.344;14.530;2023-02-11T06:08:07;101805.78;;;2.98;100.00
49055;BME280;35405;52.344;14.530;2023-02-11T06:10:32;101804.50;;;3.01;100.00
49055;BME280;35405;52.344;14.530;2023-02-11T06:12:57;101806.34;;;3.00;100.00
49055;BME280;35405;52.344;14.530;2023-02-11T06:15:23;101803.66;;;3.00;100.00
49055;BME280;35405;52.344;14.530;2023-02-11T06:17:48;101814.81;;;3.04;100.00
49055;BME280;35405;52.344;14.530;2023-02-11T06:20:13;101811.31;;;3.03;100.00
49055;BME280;35405;52.344;14.530;2023-02-11T06:22:38;101810.09;;;2.99;100.00
49055;BME280;35405;52.344;14.530;2023-02-11T06:25:03;101818.56;;;3.03;100.00
49055;BME280;35405;52.344;14.530;2023-02-11T06:27:29;101827.00;;;3.06;100.00
49055;BME280;35405;52.344;14.530;2023-02-11T06:29:54;101839.63;;;3.06;100.00
49055;BME280;35405;52.344;14.530;2023-02-11T06:32:19;101845.81;;;3.06;100.00
49055;BME280;35405;52.344;14.530;2023-02-11T06:34:44;101858.84;;;3.09;100.00
49055;BME280;35405;52.344;14.530;2023-02-11T06:37:10;101849.31;;;3.07;100.00
49055;BME280;35405;52.344;14.530;2023-02-11T06:39:35;101837.56;;;3.08;100.00
49055;BME280;35405;52.344;14.530;2023-02-11T06:42:00;101854.91;;;3.12;100.00
49055;BME280;35405;52.344;14.530;2023-02-11T06:44:25;101852.00;;;3.13;100.00
49055;BME280;35405;52.344;14.530;2023-02-11T06:46:51;101842.91;;;3.14;100.00
49055;BME280;35405;52.344;14.530;2023-02-11T06:49:16;101845.16;;;3.17;100.00
49055;BME280;35405;52.344;14.530;2023-02-11T06:51:41;101828.84;;;3.19;100.00
49055;BME280;35405;52.344;14.530;2023-02-11T06:54:06;101812.47;;;3.20;100.00
49055;BME280;35405;52.344;14.530;2023-02-11T06:56:32;101828.59;;;3.20;100.00
49055;BME280;35405;52.344;14.530;2023-02-11T06:58:57;101816.59;;;3.23;100.00
49055;BME280;35405;52.344;14.530;2023-02-11T07:01:23;101826.94;;;3.26;100.00
49055;BME280;35405;52.344;14.530;2023-02-11T07:03:49;101811.41;;;3.28;100.00
49055;BME280;35405;52.344;14.530;2023-02-11T07:06:15;101804.97;;;3.29;100.00
49055;BME280;35405;52.344;14.530;2023-02-11T07:08:41;101811.38;;;3.35;100.00
49055;BME280;35405;52.344;14.530;2023-02-11T07:11:14;101801.00;;;3.38;100.00
49055;BME280;35405;52.344;14.530;2023-02-11T07:13:43;101797.06;;;3.41;100.00
49055;BME280;35405;52.344;14.530;2023-02-11T07:16:10;101795.56;;;3.45;100.00
49055;BME280;35405;52.344;14.530;2023-02-11T07:18:36;101792.25;;;3.50;100.00
49055;BME280;35405;52.344;14.530;2023-02-11T07:21:05;101790.94;;;3.59;100.00
49055;BME280;35405;52.344;14.530;2023-02-11T07:23:30;101784.06;;;3.63;100.00
49055;BME280;35405;52.344;14.530;2023-02-11T07:25:56;101775.56;;;3.66;100.00
49055;BME280;35405;52.344;14.530;2023-02-11T07:28:21;101792.75;;;3.65;100.00
49055;BME280;35405;52.344;14.530;2023-02-11T07:30:46;101778.50;;;3.64;100.00
49055;BME280;35405;52.344;14.530;2023-02-11T07:33:11;101778.69;;;3.63;100.00
49055;BME280;35405;52.344;14.530;2023-02-11T07:35:36;101779.69;;;3.69;100.00
49055;BME280;35405;52.344;14.530;2023-02-11T07:38:02;101763.94;;;3.72;100.00
49055;BME280;35405;52.344;14.530;2023-02-11T07:40:27;101758.34;;;3.74;100.00
49055;BME280;35405;52.344;14.530;2023-02-11T07:42:52;101754.16;;;3.78;100.00
49055;BME280;35405;52.344;14.530;2023-02-11T07:45:17;101750.97;;;3.87;100.00
49055;BME280;35405;52.344;14.530;2023-02-11T07:47:42;101744.13;;;3.92;100.00
49055;BME280;35405;52.344;14.530;2023-02-11T07:50:08;101740.75;;;3.96;100.00
49055;BME280;35405;52.344;14.530;2023-02-11T07:52:33;101752.13;;;3.98;100.00
49055;BME280;35405;52.344;14.530;2023-02-11T07:54:59;101756.78;;;4.09;100.00
49055;BME280;35405;52.344;14.530;2023-02-11T07:57:24;101748.03;;;4.14;100.00
49055;BME280;35405;52.344;14.530;2023-02-11T07:59:49;101747.97;;;4.21;100.00
49055;BME280;35405;52.344;14.530;2023-02-11T08:02:14;101756.56;;;4.29;100.00
49055;BME280;35405;52.344;14.530;2023-02-11T08:04:40;101748.88;;;4.33;100.00
49055;BME280;35405;52.344;14.530;2023-02-11T08:07:05;101743.66;;;4.38;100.00
49055;BME280;35405;52.344;14.530;2023-02-11T08:09:30;101754.13;;;4.46;100.00
49055;BME280;35405;52.344;14.530;2023-02-11T08:11:56;101771.41;;;4.57;100.00
49055;BME280;35405;52.344;14.530;2023-02-11T08:14:21;101765.06;;;4.51;100.00
49055;BME280;35405;52.344;14.530;2023-02-11T08:16:46;101782.13;;;4.45;100.00
49055;BME280;35405;52.344;14.530;2023-02-11T08:19:13;101792.00;;;4.51;100.00
49055;BME280;35405;52.344;14.530;2023-02-11T08:21:38;101788.91;;;4.48;100.00
49055;BME280;35405;52.344;14.530;2023-02-11T08:24:04;101805.53;;;4.45;100.00
49055;BME280;35405;52.344;14.530;2023-02-11T08:26:31;101799.09;;;4.46;100.00
49055;BME280;35405;52.344;14.530;2023-02-11T08:28:58;101799.56;;;4.43;100.00
49055;BME280;35405;52.344;14.530;2023-02-11T08:31:25;101823.09;;;4.47;100.00
49055;BME280;35405;52.344;14.530;2023-02-11T08:33:51;101815.41;;;4.51;100.00
49055;BME280;35405;52.344;14.530;2023-02-11T08:36:22;101814.81;;;4.49;100.00
49055;BME280;35405;52.344;14.530;2023-02-11T08:38:48;101806.50;;;4.50;100.00
49055;BME280;35405;52.344;14.530;2023-02-11T08:41:13;101814.75;;;4.55;100.00
49055;BME280;35405;52.344;14.530;2023-02-11T08:43:39;101819.06;;;4.56;100.00
49055;BME280;35405;52.344;14.530;2023-02-11T08:46:08;101789.81;;;4.60;100.00
49055;BME280;35405;52.344;14.530;2023-02-11T08:48:33;101787.88;;;4.67;100.00
49055;BME280;35405;52.344;14.530;2023-02-11T08:50:58;101779.56;;;4.69;100.00
49055;BME280;35405;52.344;14.530;2023-02-11T08:53:24;101777.75;;;4.63;100.00
49055;BME280;35405;52.344;14.530;2023-02-11T08:55:49;101769.09;;;4.61;100.00
49055;BME280;35405;52.344;14.530;2023-02-11T08:58:15;101782.19;;;4.57;100.00
49055;BME280;35405;52.344;14.530;2023-02-11T09:00:40;101785.72;;;4.57;100.00
49055;BME280;35405;52.344;14.530;2023-02-11T09:03:07;101790.66;;;4.61;100.00
49055;BME280;35405;52.344;14.530;2023-02-11T09:05:33;101777.75;;;4.63;100.00
49055;BME280;35405;52.344;14.530;2023-02-11T09:07:58;101777.69;;;4.69;100.00
49055;BME280;35405;52.344;14.530;2023-02-11T09:10:23;101787.19;;;4.72;100.00
49055;BME280;35405;52.344;14.530;2023-02-11T09:12:48;101783.16;;;4.81;100.00
49055;BME280;35405;52.344;14.530;2023-02-11T09:15:13;101775.59;;;4.71;100.00
49055;BME280;35405;52.344;14.530;2023-02-11T09:17:39;101781.44;;;4.68;100.00
49055;BME280;35405;52.344;14.530;2023-02-11T09:20:04;101768.84;;;4.80;100.00
49055;BME280;35405;52.344;14.530;2023-02-11T09:22:30;101763.63;;;4.86;100.00
49055;BME280;35405;52.344;14.530;2023-02-11T09:24:55;101772.16;;;4.82;100.00
49055;BME280;35405;52.344;14.530;2023-02-11T09:27:21;101780.44;;;4.81;100.00
49055;BME280;35405;52.344;14.530;2023-02-11T09:29:46;101772.50;;;4.86;100.00
49055;BME280;35405;52.344;14.530;2023-02-11T09:32:11;101780.41;;;4.88;100.00
49055;BME280;35405;52.344;14.530;2023-02-11T09:34:36;101782.03;;;4.89;100.00
49055;BME280;35405;52.344;14.530;2023-02-11T09:37:01;101782.03;;;4.89;100.00
49055;BME280;35405;52.344;14.530;2023-02-11T09:39:27;101792.00;;;4.88;100.00
49055;BME280;35405;52.344;14.530;2023-02-11T09:41:57;101791.28;;;4.93;100.00
49055;BME280;35405;52.344;14.530;2023-02-11T09:44:25;101802.53;;;4.90;100.00
49055;BME280;35405;52.344;14.530;2023-02-11T09:46:55;101800.91;;;4.89;100.00
49055;BME280;35405;52.344;14.530;2023-02-11T09:49:23;101811.44;;;4.90;100.00
49055;BME280;35405;52.344;14.530;2023-02-11T09:51:57;101802.78;;;4.88;100.00
49055;BME280;35405;52.344;14.530;2023-02-11T09:54:28;101809.66;;;4.84;100.00
49055;BME280;35405;52.344;14.530;2023-02-11T09:56:58;101825.38;;;4.87;100.00
49055;BME280;35405;52.344;14.530;2023-02-11T09:59:23;101816.38;;;4.93;100.00
49055;BME280;35405;52.344;14.530;2023-02-11T10:07:08;101843.50;;;4.80;100.00
49055;BME280;35405;52.344;14.530;2023-02-11T10:09:42;101841.84;;;4.79;100.00
49055;BME280;35405;52.344;14.530;2023-02-11T10:17:30;101834.59;;;4.79;100.00
49055;BME280;35405;52.344;14.530;2023-02-11T10:20:03;101835.66;;;4.78;100.00
49055;BME280;35405;52.344;14.530;2023-02-11T10:22:32;101838.09;;;4.80;100.00
49055;BME280;35405;52.344;14.530;2023-02-11T10:25:20;101824.47;;;4.75;100.00
49055;BME280;35405;52.344;14.530;2023-02-11T10:27:45;101805.47;;;4.70;100.00
49055;BME280;35405;52.344;14.530;2023-02-11T10:35:17;101771.19;;;4.58;100.00
49055;BME280;35405;52.344;14.530;2023-02-11T10:37:43;101760.19;;;4.60;100.00
49055;BME280;35405;52.344;14.530;2023-02-11T10:40:15;101761.97;;;4.66;100.00
49055;BME280;35405;52.344;14.530;2023-02-11T10:42:40;101764.91;;;4.65;100.00
49055;BME280;35405;52.344;14.530;2023-02-11T10:45:09;101768.66;;;4.64;100.00
49055;BME280;35405;52.344;14.530;2023-02-11T10:47:41;101756.38;;;4.68;100.00
49055;BME280;35405;52.344;14.530;2023-02-11T10:50:21;101738.31;;;4.68;100.00
49055;BME280;35405;52.344;14.530;2023-02-11T10:52:46;101735.25;;;4.65;100.00
49055;BME280;35405;52.344;14.530;2023-02-11T10:57:41;101720.66;;;4.72;100.00
49055;BME280;35405;52.344;14.530;2023-02-11T11:00:22;101719.75;;;4.78;100.00
49055;BME280;35405;52.344;14.530;2023-02-11T11:02:54;101707.09;;;4.79;100.00
49055;BME280;35405;52.344;14.530;2023-02-11T11:05:22;101706.03;;;4.80;100.00
49055;BME280;35405;52.344;14.530;2023-02-11T11:08:08;101693.63;;;4.79;100.00
49055;BME280;35405;52.344;14.530;2023-02-11T11:12:59;101697.16;;;4.79;100.00
49055;BME280;35405;52.344;14.530;2023-02-11T11:15:25;101704.63;;;4.77;100.00
49055;BME280;35405;52.344;14.530;2023-02-11T11:18:14;101695.00;;;4.70;100.00
49055;BME280;35405;52.344;14.530;2023-02-11T11:20:36;101703.09;;;4.70;100.00
49055;BME280;35405;52.344;14.530;2023-02-11T11:31:46;101702.59;;;4.91;100.00
49055;BME280;35405;52.344;14.530;2023-02-11T11:37:34;101697.31;;;4.96;100.00
49055;BME280;35405;52.344;14.530;2023-02-11T11:42:37;101687.38;;;4.97;100.00
49055;BME280;35405;52.344;14.530;2023-02-11T11:45:17;101691.91;;;4.96;100.00
49055;BME280;35405;52.344;14.530;2023-02-11T11:47:52;101678.38;;;5.03;100.00
49055;BME280;35405;52.344;14.530;2023-02-11T11:56:02;101689.22;;;4.96;100.00
49055;BME280;35405;52.344;14.530;2023-02-11T12:16:39;101720.81;;;5.08;100.00
49055;BME280;35405;52.344;14.530;2023-02-11T12:19:19;101728.53;;;5.04;100.00
49055;BME280;35405;52.344;14.530;2023-02-11T12:24:20;101725.16;;;5.09;100.00
49055;BME280;35405;52.344;14.530;2023-02-11T12:31:48;101720.13;;;5.12;100.00
49055;BME280;35405;52.344;14.530;2023-02-11T12:56:05;101708.56;;;5.35;100.00
49055;BME280;35405;52.344;14.530;2023-02-11T12:58:35;101725.00;;;5.34;100.00
49055;BME280;35405;52.344;14.530;2023-02-11T13:01:06;101726.88;;;5.33;100.00
49055;BME280;35405;52.344;14.530;2023-02-11T13:03:37;101733.91;;;5.34;100.00
49055;BME280;35405;52.344;14.530;2023-02-11T13:06:05;101739.53;;;5.33;100.00
49055;BME280;35405;52.344;14.530;2023-02-11T13:08:39;101747.03;;;5.31;100.00
49055;BME280;35405;52.344;14.530;2023-02-11T13:11:10;101744.56;;;5.29;100.00
49055;BME280;35405;52.344;14.530;2023-02-11T13:13:45;101731.31;;;5.27;100.00
49055;BME280;35405;52.344;14.530;2023-02-11T13:21:24;101725.09;;;5.27;100.00
49055;BME280;35405;52.344;14.530;2023-02-11T13:23:59;101729.06;;;5.24;100.00
49055;BME280;35405;52.344;14.530;2023-02-11T13:29:01;101721.44;;;5.21;100.00
49055;BME280;35405;52.344;14.530;2023-02-11T13:31:30;101726.72;;;5.28;100.00
49055;BME280;35405;52.344;14.530;2023-02-11T13:33:56;101725.44;;;5.31;100.00
49055;BME280;35405;52.344;14.530;2023-02-11T13:36:22;101706.31;;;5.32;100.00
49055;BME280;35405;52.344;14.530;2023-02-11T13:39:05;101716.28;;;5.32;100.00
49055;BME280;35405;52.344;14.530;2023-02-11T13:41:34;101702.13;;;5.36;100.00
49055;BME280;35405;52.344;14.530;2023-02-11T13:44:22;101715.84;;;5.35;100.00
49055;BME280;35405;52.344;14.530;2023-02-11T13:49:26;101709.75;;;5.39;100.00
49055;BME280;35405;52.344;14.530;2023-02-11T13:51:53;101709.50;;;5.41;100.00
49055;BME280;35405;52.344;14.530;2023-02-11T13:54:21;101705.66;;;5.37;100.00
49055;BME280;35405;52.344;14.530;2023-02-11T13:57:14;101715.47;;;5.31;100.00
49055;BME280;35405;52.344;14.530;2023-02-11T14:05:11;101717.00;;;5.27;100.00
49055;BME280;35405;52.344;14.530;2023-02-11T14:13:23;101725.00;;;5.34;100.00
49055;BME280;35405;52.344;14.530;2023-02-11T14:16:11;101733.91;;;5.34;100.00
49055;BME280;35405;52.344;14.530;2023-02-11T14:18:35;101735.78;;;5.34;100.00
49055;BME280;35405;52.344;14.530;2023-02-11T14:23:38;101736.59;;;5.34;100.00
49055;BME280;35405;52.344;14.530;2023-02-11T14:26:09;101748.22;;;5.35;100.00
49055;BME280;35405;52.344;14.530;2023-02-11T14:28:40;101744.47;;;5.36;100.00
49055;BME280;35405;52.344;14.530;2023-02-11T14:36:46;101751.72;;;5.35;100.00
49055;BME280;35405;52.344;14.530;2023-02-11T14:42:12;101752.47;;;5.42;100.00
49055;BME280;35405;52.344;14.530;2023-02-11T14:44:40;101749.75;;;5.42;100.00
49055;BME280;35405;52.344;14.530;2023-02-11T14:47:05;101748.47;;;5.45;100.00
49055;BME280;35405;52.344;14.530;2023-02-11T14:49:32;101742.84;;;5.46;100.00
49055;BME280;35405;52.344;14.530;2023-02-11T14:51:59;101754.84;;;5.50;100.00
49055;BME280;35405;52.344;14.530;2023-02-11T14:54:27;101766.19;;;5.53;100.00
49055;BME280;35405;52.344;14.530;2023-02-11T14:57:06;101764.09;;;5.55;100.00
49055;BME280;35405;52.344;14.530;2023-02-11T14:59:32;101770.91;;;5.57;100.00
49055;BME280;35405;52.344;14.530;2023-02-11T15:01:57;101771.75;;;5.58;100.00
49055;BME280;35405;52.344;14.530;2023-02-11T15:04:24;101765.97;;;5.54;100.00
49055;BME280;35405;52.344;14.530;2023-02-11T15:06:50;101770.78;;;5.52;100.00
49055;BME280;35405;52.344;14.530;2023-02-11T15:11:40;101781.09;;;5.55;100.00
49055;BME280;35405;52.344;14.530;2023-02-11T15:14:10;101777.94;;;5.58;100.00
49055;BME280;35405;52.344;14.530;2023-02-11T15:16:40;101777.50;;;5.61;100.00
49055;BME280;35405;52.344;14.530;2023-02-11T15:19:06;101777.72;;;5.60;100.00
49055;BME280;35405;52.344;14.530;2023-02-11T15:21:32;101779.38;;;5.61;100.00
49055;BME280;35405;52.344;14.530;2023-02-11T15:23:59;101774.56;;;5.63;100.00
49055;BME280;35405;52.344;14.530;2023-02-11T15:26:25;101777.72;;;5.60;100.00
49055;BME280;35405;52.344;14.530;2023-02-11T15:28:51;101784.16;;;5.59;100.00
49055;BME280;35405;52.344;14.530;2023-02-11T15:31:17;101777.50;;;5.61;100.00
49055;BME280;35405;52.344;14.530;2023-02-11T15:33:43;101772.34;;;5.60;100.00
49055;BME280;35405;52.344;14.530;2023-02-11T15:36:10;101780.19;;;5.61;100.00
49055;BME280;35405;52.344;14.530;2023-02-11T15:38:35;101776.88;;;5.59;100.00
49055;BME280;35405;52.344;14.530;2023-02-11T15:41:01;101775.59;;;5.62;100.00
49055;BME280;35405;52.344;14.530;2023-02-11T15:43:41;101779.84;;;5.58;100.00
49055;BME280;35405;52.344;14.530;2023-02-11T15:46:07;101789.00;;;5.57;100.00
49055;BME280;35405;52.344;14.530;2023-02-11T15:48:52;101796.63;;;5.60;100.00
49055;BME280;35405;52.344;14.530;2023-02-11T15:53:47;101790.16;;;5.61;100.00
49055;BME280;35405;52.344;14.530;2023-02-11T15:58:40;101792.63;;;5.62;100.00
49055;BME280;35405;52.344;14.530;2023-02-11T16:01:06;101792.63;;;5.62;100.00
49055;BME280;35405;52.344;14.530;2023-02-11T16:03:32;101787.69;;;5.59;100.00
49055;BME280;35405;52.344;14.530;2023-02-11T16:06:14;101788.84;;;5.52;100.00
49055;BME280;35405;52.344;14.530;2023-02-11T16:08:40;101794.25;;;5.52;100.00
49055;BME280;35405;52.344;14.530;2023-02-11T16:11:17;101802.03;;;5.60;100.00
49055;BME280;35405;52.344;14.530;2023-02-11T16:13:44;101793.78;;;5.55;100.00
49055;BME280;35405;52.344;14.530;2023-02-11T16:16:43;101806.00;;;5.57;100.00
49055;BME280;35405;52.344;14.530;2023-02-11T16:19:02;101799.53;;;5.58;100.00
49055;BME280;35405;52.344;14.530;2023-02-11T16:21:31;101802.94;;;5.54;100.00
49055;BME280;35405;52.344;14.530;2023-02-11T16:24:03;101821.38;;;5.57;100.00
49055;BME280;35405;52.344;14.530;2023-02-11T16:26:31;101814.31;;;5.56;100.00
49055;BME280;35405;52.344;14.530;2023-02-11T16:29:10;101814.31;;;5.56;100.00
49055;BME280;35405;52.344;14.530;2023-02-11T16:31:38;101828.03;;;5.54;100.00
49055;BME280;35405;52.344;14.530;2023-02-11T16:34:10;101823.47;;;5.55;100.00
49055;BME280;35405;52.344;14.530;2023-02-11T16:36:37;101827.22;;;5.54;100.00
49055;BME280;35405;52.344;14.530;2023-02-11T16:39:02;101828.03;;;5.54;100.00
49055;BME280;35405;52.344;14.530;2023-02-11T16:41:27;101823.81;;;5.58;100.00
49055;BME280;35405;52.344;14.530;2023-02-11T16:43:55;101837.31;;;5.58;100.00
49055;BME280;35405;52.344;14.530;2023-02-11T16:46:20;101835.44;;;5.59;100.00
49055;BME280;35405;52.344;14.530;2023-02-11T16:49:07;101834.88;;;5.57;100.00
49055;BME280;35405;52.344;14.530;2023-02-11T16:51:39;101837.09;;;5.60;100.00
49055;BME280;35405;52.344;14.530;2023-02-11T16:54:05;101836.50;;;5.58;100.00
49055;BME280;35405;52.344;14.530;2023-02-11T16:56:30;101835.91;;;5.56;100.00
49055;BME280;35405;52.344;14.530;2023-02-11T16:58:55;101841.66;;;5.59;100.00
49055;BME280;35405;52.344;14.530;2023-02-11T17:01:21;101851.41;;;5.60;100.00
49055;BME280;35405;52.344;14.530;2023-02-11T17:03:46;101853.28;;;5.60;100.00
49055;BME280;35405;52.344;14.530;2023-02-11T17:06:11;101856.56;;;5.62;100.00
49055;BME280;35405;52.344;14.530;2023-02-11T17:08:37;101865.72;;;5.61;100.00
49055;BME280;35405;52.344;14.530;2023-02-11T17:11:03;101865.94;;;5.59;100.00
49055;BME280;35405;52.344;14.530;2023-02-11T17:13:28;101864.91;;;5.60;100.00
49055;BME280;35405;52.344;14.530;2023-02-11T17:15:53;101861.38;;;5.60;100.00
49055;BME280;35405;52.344;14.530;2023-02-11T17:18:19;101878.16;;;5.62;100.00
49055;BME280;35405;52.344;14.530;2023-02-11T17:20:45;101882.06;;;5.66;100.00
49055;BME280;35405;52.344;14.530;2023-02-11T17:23:10;101884.31;;;5.69;100.00
49055;BME280;35405;52.344;14.530;2023-02-11T17:25:36;101874.44;;;5.74;100.00
49055;BME280;35405;52.344;14.530;2023-02-11T17:28:02;101884.41;;;5.74;100.00
49055;BME280;35405;52.344;14.530;2023-02-11T17:30:27;101878.56;;;5.77;100.00
49055;BME280;35405;52.344;14.530;2023-02-11T17:32:52;101889.00;;;5.73;100.00
49055;BME280;35405;52.344;14.530;2023-02-11T17:35:17;101895.81;;;5.76;100.00
49055;BME280;35405;52.344;14.530;2023-02-11T17:37:43;101898.53;;;5.76;100.00
49055;BME280;35405;52.344;14.530;2023-02-11T17:40:17;101906.81;;;5.74;100.00
49055;BME280;35405;52.344;14.530;2023-02-11T17:42:42;101914.72;;;5.76;100.00
49055;BME280;35405;52.344;14.530;2023-02-11T17:45:07;101916.34;;;5.77;100.00
49055;BME280;35405;52.344;14.530;2023-02-11T17:47:33;101920.47;;;5.80;100.00
49055;BME280;35405;52.344;14.530;2023-02-11T17:49:59;101920.47;;;5.80;100.00
49055;BME280;35405;52.344;14.530;2023-02-11T17:52:24;101930.44;;;5.79;100.00
49055;BME280;35405;52.344;14.530;2023-02-11T17:54:51;101928.22;;;5.76;100.00
49055;BME280;35405;52.344;14.530;2023-02-11T17:57:17;101934.22;;;5.78;100.00
49055;BME280;35405;52.344;14.530;2023-02-11T17:59:42;101940.19;;;5.80;100.00
49055;BME280;35405;52.344;14.530;2023-02-11T18:02:09;101953.38;;;5.88;100.00
49055;BME280;35405;52.344;14.530;2023-02-11T18:04:34;101946.78;;;5.84;100.00
49055;BME280;35405;52.344;14.530;2023-02-11T18:07:00;101945.97;;;5.84;100.00
49055;BME280;35405;52.344;14.530;2023-02-11T18:09:25;101938.91;;;5.83;100.00
49055;BME280;35405;52.344;14.530;2023-02-11T18:11:50;101944.19;;;5.78;100.00
49055;BME280;35405;52.344;14.530;2023-02-11T18:14:16;101952.28;;;5.78;100.00
49055;BME280;35405;52.344;14.530;2023-02-11T18:16:42;101956.19;;;5.82;100.00
49055;BME280;35405;52.344;14.530;2023-02-11T18:19:09;101963.22;;;5.83;100.00
49055;BME280;35405;52.344;14.530;2023-02-11T18:21:35;101968.03;;;5.81;100.00
49055;BME280;35405;52.344;14.530;2023-02-11T18:24:01;101971.63;;;5.74;100.00
49055;BME280;35405;52.344;14.530;2023-02-11T18:26:26;101969.75;;;5.75;100.00
49055;BME280;35405;52.344;14.530;2023-02-11T18:28:52;101981.53;;;5.81;100.00
49055;BME280;35405;52.344;14.530;2023-02-11T18:31:17;101981.75;;;5.79;100.00
49055;BME280;35405;52.344;14.530;2023-02-11T18:33:43;101998.75;;;5.80;100.00
49055;BME280;35405;52.344;14.530;2023-02-11T18:36:09;101996.88;;;5.80;100.00
49055;BME280;35405;52.344;14.530;2023-02-11T18:38:35;102001.25;;;5.81;100.00
49055;BME280;35405;52.344;14.530;2023-02-11T18:41:00;102002.44;;;5.85;100.00
49055;BME280;35405;52.344;14.530;2023-02-11T18:43:26;102007.16;;;5.90;100.00
49055;BME280;35405;52.344;14.530;2023-02-11T18:45:55;102011.50;;;5.91;100.00
49055;BME280;35405;52.344;14.530;2023-02-11T18:48:21;102012.97;;;5.93;100.00
49055;BME280;35405;52.344;14.530;2023-02-11T18:50:46;102026.22;;;5.95;100.00
49055;BME280;35405;52.344;14.530;2023-02-11T18:53:12;102021.47;;;5.90;100.00
49055;BME280;35405;52.344;14.530;2023-02-11T18:55:38;102027.34;;;5.87;100.00
49055;BME280;35405;52.344;14.530;2023-02-11T18:58:03;102028.97;;;5.88;100.00
49055;BME280;35405;52.344;14.530;2023-02-11T19:00:29;102030.63;;;5.89;100.00
49055;BME280;35405;52.344;14.530;2023-02-11T19:02:55;102032.28;;;5.90;100.00
49055;BME280;35405;52.344;14.530;2023-02-11T19:05:21;102029.59;;;5.90;100.00
49055;BME280;35405;52.344;14.530;2023-02-11T19:07:46;102033.75;;;5.93;100.00
49055;BME280;35405;52.344;14.530;2023-02-11T19:10:11;102024.41;;;5.89;100.00
49055;BME280;35405;52.344;14.530;2023-02-11T19:12:37;102036.19;;;5.94;100.00
49055;BME280;35405;52.344;14.530;2023-02-11T19:15:03;102045.38;;;5.93;100.00
49055;BME280;35405;52.344;14.530;2023-02-11T19:17:29;102043.91;;;5.91;100.00
49055;BME280;35405;52.344;14.530;2023-02-11T19:19:54;102048.47;;;5.90;100.00
49055;BME280;35405;52.344;14.530;2023-02-11T19:22:19;102059.28;;;5.90;100.00
49055;BME280;35405;52.344;14.530;2023-02-11T19:24:44;102066.16;;;5.93;100.00
49055;BME280;35405;52.344;14.530;2023-02-11T19:27:10;102072.72;;;5.97;100.00
49055;BME280;35405;52.344;14.530;2023-02-11T19:29:35;102080.66;;;5.92;100.00
49055;BME280;35405;52.344;14.530;2023-02-11T19:32:01;102078.63;;;5.87;100.00
49055;BME280;35405;52.344;14.530;2023-02-11T19:34:26;102080.88;;;5.90;100.00
49055;BME280;35405;52.344;14.530;2023-02-11T19:36:51;102093.72;;;5.95;100.00
49055;BME280;35405;52.344;14.530;2023-02-11T19:39:18;102098.72;;;5.91;100.00
49055;BME280;35405;52.344;14.530;2023-02-11T19:41:43;102089.81;;;5.91;100.00
49055;BME280;35405;52.344;14.530;2023-02-11T19:44:09;102089.00;;;5.90;100.00
49055;BME280;35405;52.344;14.530;2023-02-11T19:46:35;102099.53;;;5.92;100.00
49055;BME280;35405;52.344;14.530;2023-02-11T19:49:01;102099.38;;;5.93;100.00
49055;BME280;35405;52.344;14.530;2023-02-11T19:51:28;102101.66;;;5.90;100.00
49055;BME280;35405;52.344;14.530;2023-02-11T19:53:53;102098.31;;;5.94;100.00
49055;BME280;35405;52.344;14.530;2023-02-11T19:56:18;102102.06;;;5.93;100.00
49055;BME280;35405;52.344;14.530;2023-02-11T19:58:44;102101.88;;;5.88;100.00
49055;BME280;35405;52.344;14.530;2023-02-11T20:03:34;102100.81;;;5.89;100.00
49055;BME280;35405;52.344;14.530;2023-02-11T20:06:03;102104.56;;;5.88;100.00
49055;BME280;35405;52.344;14.530;2023-02-11T20:08:28;102098.00;;;5.84;100.00
49055;BME280;35405;52.344;14.530;2023-02-11T20:10:53;102097.38;;;5.82;100.00
49055;BME280;35405;52.344;14.530;2023-02-11T20:13:18;102095.03;;;5.86;100.00
49055;BME280;35405;52.344;14.530;2023-02-11T20:15:44;102095.28;;;5.84;100.00
49055;BME280;35405;52.344;14.530;2023-02-11T20:18:09;102098.19;;;5.83;100.00
49055;BME280;35405;52.344;14.530;2023-02-11T20:20:34;102104.88;;;5.80;100.00
49055;BME280;35405;52.344;14.530;2023-02-11T20:23:01;102112.75;;;5.82;100.00
49055;BME280;35405;52.344;14.530;2023-02-11T20:25:26;102120.84;;;5.82;100.00
49055;BME280;35405;52.344;14.530;2023-02-11T20:27:51;102118.97;;;5.82;100.00
49055;BME280;35405;52.344;14.530;2023-02-11T20:30:17;102126.69;;;5.79;100.00
49055;BME280;35405;52.344;14.530;2023-02-11T20:32:42;102127.31;;;5.81;100.00
49055;BME280;35405;52.344;14.530;2023-02-11T20:35:07;102144.34;;;5.81;100.00
49055;BME280;35405;52.344;14.530;2023-02-11T20:37:33;102134.72;;;5.85;100.00
49055;BME280;35405;52.344;14.530;2023-02-11T20:39:58;102139.31;;;5.85;100.00
49055;BME280;35405;52.344;14.530;2023-02-11T20:42:24;102148.22;;;5.85;100.00
49055;BME280;35405;52.344;14.530;2023-02-11T20:44:49;102154.25;;;5.87;100.00
49055;BME280;35405;52.344;14.530;2023-02-11T20:47:14;102160.28;;;5.83;100.00
49055;BME280;35405;52.344;14.530;2023-02-11T20:49:39;102163.00;;;5.83;100.00
49055;BME280;35405;52.344;14.530;2023-02-11T20:52:04;102170.66;;;5.86;100.00